sensor_id;sensor_type;location;lat;lon;timestamp;P1;durP1;ratioP1;P2;durP2;ratioP2
70078;SDS011;57451;52.496;13.456;2023-05-07T00:00:35;13.90;;;9.43;;
70078;SDS011;57451;52.496;13.456;2023-05-07T00:03:03;17.42;;;10.07;;
70078;SDS011;57451;52.496;13.456;2023-05-07T00:05:31;15.88;;;9.57;;
70078;SDS011;57451;52.496;13.456;2023-05-07T00:07:59;14.43;;;9.32;;
70078;SDS011;57451;52.496;13.456;2023-05-07T00:10:26;14.50;;;9.55;;
70078;SDS011;57451;52.496;13.456;2023-05-07T00:12:53;16.00;;;9.77;;
70078;SDS011;57451;52.496;13.456;2023-05-07T00:15:21;15.93;;;10.15;;
70078;SDS011;57451;52.496;13.456;2023-05-07T00:17:48;13.02;;;9.68;;
70078;SDS011;57451;52.496;13.456;2023-05-07T00:20:15;13.32;;;8.50;;
70078;SDS011;57451;52.496;13.456;2023-05-07T00:22:44;14.90;;;9.48;;
70078;SDS011;57451;52.496;13.456;2023-05-07T00:25:11;15.13;;;8.83;;
70078;SDS011;57451;52.496;13.456;2023-05-07T00:27:39;13.88;;;9.55;;
70078;SDS011;57451;52.496;13.456;2023-05-07T00:30:06;12.68;;;8.73;;
70078;SDS011;57451;52.496;13.456;2023-05-07T00:32:35;15.80;;;8.55;;
70078;SDS011;57451;52.496;13.456;2023-05-07T00:35:03;15.82;;;9.55;;
70078;SDS011;57451;52.496;13.456;2023-05-07T00:37:31;13.13;;;8.77;;
70078;SDS011;57451;52.496;13.456;2023-05-07T00:40:00;14.65;;;9.55;;
70078;SDS011;57451;52.496;13.456;2023-05-07T00:42:30;14.50;;;9.38;;
70078;SDS011;57451;52.496;13.456;2023-05-07T00:44:59;12.57;;;9.43;;
70078;SDS011;57451;52.496;13.456;2023-05-07T00:47:28;14.15;;;9.23;;
70078;SDS011;57451;52.496;13.456;2023-05-07T00:49:55;12.87;;;8.27;;
70078;SDS011;57451;52.496;13.456;2023-05-07T00:52:24;13.88;;;8.88;;
70078;SDS011;57451;52.496;13.456;2023-05-07T00:54:52;13.90;;;9.38;;
70078;SDS011;57451;52.496;13.456;2023-05-07T00:57:22;13.68;;;9.45;;
70078;SDS011;57451;52.496;13.456;2023-05-07T00:59:52;13.30;;;9.38;;
70078;SDS011;57451;52.496;13.456;2023-05-07T01:02:19;14.80;;;9.37;;
70078;SDS011;57451;52.496;13.456;2023-05-07T01:04:47;14.80;;;8.98;;
70078;SDS011;57451;52.496;13.456;2023-05-07T01:07:14;13.05;;;8.95;;
70078;SDS011;57451;52.496;13.456;2023-05-07T01:09:42;14.45;;;9.15;;
70078;SDS011;57451;52.496;13.456;2023-05-07T01:12:09;12.75;;;9.02;;
70078;SDS011;57451;52.496;13.456;2023-05-07T01:14:38;14.50;;;9.63;;
70078;SDS011;57451;52.496;13.456;2023-05-07T01:17:06;16.00;;;9.80;;
70078;SDS011;57451;52.496;13.456;2023-05-07T01:19:34;14.82;;;10.02;;
70078;SDS011;57451;52.496;13.456;2023-05-07T01:22:02;16.23;;;9.90;;
70078;SDS011;57451;52.496;13.456;2023-05-07T01:24:43;19.40;;;10.25;;
70078;SDS011;57451;52.496;13.456;2023-05-07T01:27:11;14.57;;;9.17;;
70078;SDS011;57451;52.496;13.456;2023-05-07T01:29:39;14.18;;;9.80;;
70078;SDS011;57451;52.496;13.456;2023-05-07T01:32:06;13.20;;;8.98;;
70078;SDS011;57451;52.496;13.456;2023-05-07T01:34:34;13.60;;;9.32;;
70078;SDS011;57451;52.496;13.456;2023-05-07T01:37:03;14.15;;;8.82;;
70078;SDS011;57451;52.496;13.456;2023-05-07T01:39:31;15.50;;;9.07;;
70078;SDS011;57451;52.496;13.456;2023-05-07T01:42:01;15.20;;;9.02;;
70078;SDS011;57451;52.496;13.456;2023-05-07T01:44:28;14.35;;;8.73;;
70078;SDS011;57451;52.496;13.456;2023-05-07T01:46:56;14.85;;;8.63;;
70078;SDS011;57451;52.496;13.456;2023-05-07T01:49:24;14.60;;;8.00;;
70078;SDS011;57451;52.496;13.456;2023-05-07T01:51:51;12.93;;;8.77;;
70078;SDS011;57451;52.496;13.456;2023-05-07T01:54:19;13.63;;;9.05;;
70078;SDS011;57451;52.496;13.456;2023-05-07T01:56:51;14.20;;;8.80;;
70078;SDS011;57451;52.496;13.456;2023-05-07T01:59:20;12.07;;;8.50;;
70078;SDS011;57451;52.496;13.456;2023-05-07T02:01:47;14.18;;;8.35;;
70078;SDS011;57451;52.496;13.456;2023-05-07T02:04:14;15.07;;;9.20;;
70078;SDS011;57451;52.496;13.456;2023-05-07T02:06:42;13.25;;;8.90;;
70078;SDS011;57451;52.496;13.456;2023-05-07T02:09:10;13.00;;;8.82;;
70078;SDS011;57451;52.496;13.456;2023-05-07T02:11:40;13.45;;;8.48;;
70078;SDS011;57451;52.496;13.456;2023-05-07T02:14:08;14.48;;;9.27;;
70078;SDS011;57451;52.496;13.456;2023-05-07T02:16:36;13.00;;;9.10;;
70078;SDS011;57451;52.496;13.456;2023-05-07T02:19:04;15.55;;;8.80;;
70078;SDS011;57451;52.496;13.456;2023-05-07T02:21:31;15.55;;;9.02;;
70078;SDS011;57451;52.496;13.456;2023-05-07T02:23:59;14.32;;;8.68;;
70078;SDS011;57451;52.496;13.456;2023-05-07T02:26:26;13.18;;;8.75;;
70078;SDS011;57451;52.496;13.456;2023-05-07T02:28:53;13.83;;;8.87;;
70078;SDS011;57451;52.496;13.456;2023-05-07T02:31:21;15.05;;;8.90;;
70078;SDS011;57451;52.496;13.456;2023-05-07T02:33:50;13.23;;;9.10;;
70078;SDS011;57451;52.496;13.456;2023-05-07T02:36:17;15.35;;;8.82;;
70078;SDS011;57451;52.496;13.456;2023-05-07T02:38:51;13.63;;;8.95;;
70078;SDS011;57451;52.496;13.456;2023-05-07T02:41:19;12.80;;;8.80;;
70078;SDS011;57451;52.496;13.456;2023-05-07T02:43:47;14.13;;;9.07;;
70078;SDS011;57451;52.496;13.456;2023-05-07T02:46:14;13.18;;;9.20;;
70078;SDS011;57451;52.496;13.456;2023-05-07T02:48:46;12.85;;;8.68;;
70078;SDS011;57451;52.496;13.456;2023-05-07T02:51:16;15.55;;;8.75;;
70078;SDS011;57451;52.496;13.456;2023-05-07T02:53:44;13.50;;;8.80;;
70078;SDS011;57451;52.496;13.456;2023-05-07T02:56:11;13.35;;;8.10;;
70078;SDS011;57451;52.496;13.456;2023-05-07T02:58:38;12.57;;;8.55;;
70078;SDS011;57451;52.496;13.456;2023-05-07T03:01:07;12.93;;;8.52;;
70078;SDS011;57451;52.496;13.456;2023-05-07T03:03:43;13.85;;;8.63;;
70078;SDS011;57451;52.496;13.456;2023-05-07T03:06:11;12.67;;;8.53;;
70078;SDS011;57451;52.496;13.456;2023-05-07T03:08:40;12.32;;;8.52;;
70078;SDS011;57451;52.496;13.456;2023-05-07T03:11:07;14.02;;;8.38;;
70078;SDS011;57451;52.496;13.456;2023-05-07T03:13:34;14.27;;;8.93;;
70078;SDS011;57451;52.496;13.456;2023-05-07T03:16:02;15.43;;;9.00;;
70078;SDS011;57451;52.496;13.456;2023-05-07T03:18:29;13.43;;;8.23;;
70078;SDS011;57451;52.496;13.456;2023-05-07T03:20:57;14.15;;;8.82;;
70078;SDS011;57451;52.496;13.456;2023-05-07T03:23:24;13.95;;;9.05;;
70078;SDS011;57451;52.496;13.456;2023-05-07T03:25:53;12.95;;;8.32;;
70078;SDS011;57451;52.496;13.456;2023-05-07T03:28:20;14.30;;;8.48;;
70078;SDS011;57451;52.496;13.456;2023-05-07T03:30:58;15.07;;;8.47;;
70078;SDS011;57451;52.496;13.456;2023-05-07T03:33:26;14.18;;;8.43;;
70078;SDS011;57451;52.496;13.456;2023-05-07T03:35:55;15.52;;;8.52;;
70078;SDS011;57451;52.496;13.456;2023-05-07T03:38:24;16.30;;;8.70;;
70078;SDS011;57451;52.496;13.456;2023-05-07T03:40:52;12.80;;;9.00;;
70078;SDS011;57451;52.496;13.456;2023-05-07T03:43:20;15.10;;;8.97;;
70078;SDS011;57451;52.496;13.456;2023-05-07T03:45:54;12.80;;;9.07;;
70078;SDS011;57451;52.496;13.456;2023-05-07T03:48:24;15.35;;;9.27;;
70078;SDS011;57451;52.496;13.456;2023-05-07T03:50:55;15.00;;;9.23;;
70078;SDS011;57451;52.496;13.456;2023-05-07T03:53:26;15.50;;;8.98;;
70078;SDS011;57451;52.496;13.456;2023-05-07T03:55:55;14.40;;;8.87;;
70078;SDS011;57451;52.496;13.456;2023-05-07T03:58:22;12.85;;;8.60;;
70078;SDS011;57451;52.496;13.456;2023-05-07T04:00:50;11.65;;;7.60;;
70078;SDS011;57451;52.496;13.456;2023-05-07T04:03:23;13.75;;;8.27;;
70078;SDS011;57451;52.496;13.456;2023-05-07T04:05:51;12.63;;;8.07;;
70078;SDS011;57451;52.496;13.456;2023-05-07T04:08:19;13.43;;;8.00;;
70078;SDS011;57451;52.496;13.456;2023-05-07T04:10:55;13.43;;;8.23;;
70078;SDS011;57451;52.496;13.456;2023-05-07T04:13:23;13.27;;;8.15;;
70078;SDS011;57451;52.496;13.456;2023-05-07T04:15:51;12.90;;;8.30;;
70078;SDS011;57451;52.496;13.456;2023-05-07T04:18:19;12.25;;;7.88;;
70078;SDS011;57451;52.496;13.456;2023-05-07T04:20:47;13.07;;;8.07;;
70078;SDS011;57451;52.496;13.456;2023-05-07T04:23:16;12.65;;;8.00;;
70078;SDS011;57451;52.496;13.456;2023-05-07T04:25:44;14.15;;;8.00;;
70078;SDS011;57451;52.496;13.456;2023-05-07T04:28:26;13.38;;;8.48;;
70078;SDS011;57451;52.496;13.456;2023-05-07T04:30:54;11.95;;;7.78;;
70078;SDS011;57451;52.496;13.456;2023-05-07T04:33:21;11.20;;;7.33;;
70078;SDS011;57451;52.496;13.456;2023-05-07T04:35:50;11.57;;;7.43;;
70078;SDS011;57451;52.496;13.456;2023-05-07T04:38:17;13.45;;;7.22;;
70078;SDS011;57451;52.496;13.456;2023-05-07T04:40:46;12.23;;;7.35;;
70078;SDS011;57451;52.496;13.456;2023-05-07T04:43:18;10.23;;;6.78;;
70078;SDS011;57451;52.496;13.456;2023-05-07T04:45:51;11.27;;;6.87;;
70078;SDS011;57451;52.496;13.456;2023-05-07T04:48:20;10.07;;;6.82;;
70078;SDS011;57451;52.496;13.456;2023-05-07T04:50:50;10.77;;;7.30;;
70078;SDS011;57451;52.496;13.456;2023-05-07T04:53:18;11.68;;;7.25;;
70078;SDS011;57451;52.496;13.456;2023-05-07T04:55:47;9.88;;;6.65;;
70078;SDS011;57451;52.496;13.456;2023-05-07T04:58:14;13.07;;;6.73;;
70078;SDS011;57451;52.496;13.456;2023-05-07T05:00:44;9.82;;;6.28;;
70078;SDS011;57451;52.496;13.456;2023-05-07T05:03:13;10.68;;;6.50;;
70078;SDS011;57451;52.496;13.456;2023-05-07T05:05:41;10.70;;;6.85;;
70078;SDS011;57451;52.496;13.456;2023-05-07T05:08:08;12.02;;;7.18;;
70078;SDS011;57451;52.496;13.456;2023-05-07T05:10:38;9.23;;;5.90;;
70078;SDS011;57451;52.496;13.456;2023-05-07T05:13:06;9.80;;;6.22;;
70078;SDS011;57451;52.496;13.456;2023-05-07T05:15:34;11.02;;;6.40;;
70078;SDS011;57451;52.496;13.456;2023-05-07T05:18:02;9.75;;;6.00;;
70078;SDS011;57451;52.496;13.456;2023-05-07T05:20:31;11.60;;;6.18;;
70078;SDS011;57451;52.496;13.456;2023-05-07T05:22:59;9.80;;;5.77;;
70078;SDS011;57451;52.496;13.456;2023-05-07T05:25:26;12.13;;;6.47;;
70078;SDS011;57451;52.496;13.456;2023-05-07T05:27:56;9.80;;;6.15;;
70078;SDS011;57451;52.496;13.456;2023-05-07T05:30:23;10.55;;;5.95;;
70078;SDS011;57451;52.496;13.456;2023-05-07T05:32:51;11.30;;;6.40;;
70078;SDS011;57451;52.496;13.456;2023-05-07T05:35:19;10.27;;;6.20;;
70078;SDS011;57451;52.496;13.456;2023-05-07T05:37:47;10.15;;;6.72;;
70078;SDS011;57451;52.496;13.456;2023-05-07T05:40:16;10.52;;;6.57;;
70078;SDS011;57451;52.496;13.456;2023-05-07T05:42:44;11.25;;;6.57;;
70078;SDS011;57451;52.496;13.456;2023-05-07T05:45:12;10.90;;;5.88;;
70078;SDS011;57451;52.496;13.456;2023-05-07T05:47:39;14.10;;;6.40;;
70078;SDS011;57451;52.496;13.456;2023-05-07T05:50:07;10.00;;;6.32;;
70078;SDS011;57451;52.496;13.456;2023-05-07T05:52:36;11.93;;;6.55;;
70078;SDS011;57451;52.496;13.456;2023-05-07T05:55:06;11.07;;;6.65;;
70078;SDS011;57451;52.496;13.456;2023-05-07T05:57:35;11.90;;;6.28;;
70078;SDS011;57451;52.496;13.456;2023-05-07T06:00:03;11.60;;;7.13;;
70078;SDS011;57451;52.496;13.456;2023-05-07T06:02:32;10.23;;;6.82;;
70078;SDS011;57451;52.496;13.456;2023-05-07T06:05:00;10.20;;;6.05;;
70078;SDS011;57451;52.496;13.456;2023-05-07T06:07:27;10.93;;;6.85;;
70078;SDS011;57451;52.496;13.456;2023-05-07T06:09:55;11.65;;;7.15;;
70078;SDS011;57451;52.496;13.456;2023-05-07T06:12:24;11.17;;;6.33;;
70078;SDS011;57451;52.496;13.456;2023-05-07T06:14:51;14.35;;;7.03;;
70078;SDS011;57451;52.496;13.456;2023-05-07T06:17:19;10.95;;;6.93;;
70078;SDS011;57451;52.496;13.456;2023-05-07T06:19:48;11.65;;;6.85;;
70078;SDS011;57451;52.496;13.456;2023-05-07T06:22:18;11.95;;;6.85;;
70078;SDS011;57451;52.496;13.456;2023-05-07T06:24:45;10.37;;;6.43;;
70078;SDS011;57451;52.496;13.456;2023-05-07T06:27:13;11.70;;;6.68;;
70078;SDS011;57451;52.496;13.456;2023-05-07T06:29:41;10.07;;;6.80;;
70078;SDS011;57451;52.496;13.456;2023-05-07T06:32:13;10.82;;;5.88;;
70078;SDS011;57451;52.496;13.456;2023-05-07T06:34:43;11.88;;;6.97;;
70078;SDS011;57451;52.496;13.456;2023-05-07T06:37:11;8.87;;;5.50;;
70078;SDS011;57451;52.496;13.456;2023-05-07T06:40:01;8.93;;;5.00;;
70078;SDS011;57451;52.496;13.456;2023-05-07T06:42:30;15.35;;;6.53;;
70078;SDS011;57451;52.496;13.456;2023-05-07T06:45:16;11.77;;;6.40;;
70078;SDS011;57451;52.496;13.456;2023-05-07T06:47:43;8.63;;;6.13;;
70078;SDS011;57451;52.496;13.456;2023-05-07T06:50:11;10.70;;;6.20;;
70078;SDS011;57451;52.496;13.456;2023-05-07T06:52:39;9.52;;;6.35;;
70078;SDS011;57451;52.496;13.456;2023-05-07T06:55:06;11.15;;;6.28;;
70078;SDS011;57451;52.496;13.456;2023-05-07T06:57:34;9.73;;;6.22;;
70078;SDS011;57451;52.496;13.456;2023-05-07T07:00:01;10.27;;;6.05;;
70078;SDS011;57451;52.496;13.456;2023-05-07T07:02:32;11.73;;;6.60;;
70078;SDS011;57451;52.496;13.456;2023-05-07T07:05:00;9.40;;;5.93;;
70078;SDS011;57451;52.496;13.456;2023-05-07T07:07:27;9.20;;;5.65;;
70078;SDS011;57451;52.496;13.456;2023-05-07T07:09:54;9.05;;;5.80;;
70078;SDS011;57451;52.496;13.456;2023-05-07T07:12:22;10.45;;;6.05;;
70078;SDS011;57451;52.496;13.456;2023-05-07T07:14:51;9.67;;;5.60;;
70078;SDS011;57451;52.496;13.456;2023-05-07T07:17:21;9.40;;;5.97;;
70078;SDS011;57451;52.496;13.456;2023-05-07T07:19:50;8.70;;;5.82;;
70078;SDS011;57451;52.496;13.456;2023-05-07T07:22:18;11.38;;;5.70;;
70078;SDS011;57451;52.496;13.456;2023-05-07T07:24:45;10.43;;;5.55;;
70078;SDS011;57451;52.496;13.456;2023-05-07T07:27:15;8.57;;;5.40;;
70078;SDS011;57451;52.496;13.456;2023-05-07T07:29:43;6.70;;;4.25;;
70078;SDS011;57451;52.496;13.456;2023-05-07T07:32:11;8.10;;;4.80;;
70078;SDS011;57451;52.496;13.456;2023-05-07T07:34:39;11.25;;;4.70;;
70078;SDS011;57451;52.496;13.456;2023-05-07T07:37:08;7.40;;;4.45;;
70078;SDS011;57451;52.496;13.456;2023-05-07T07:39:36;7.67;;;4.33;;
70078;SDS011;57451;52.496;13.456;2023-05-07T07:42:08;7.38;;;4.80;;
70078;SDS011;57451;52.496;13.456;2023-05-07T07:44:35;7.18;;;4.20;;
70078;SDS011;57451;52.496;13.456;2023-05-07T07:47:06;8.23;;;4.55;;
70078;SDS011;57451;52.496;13.456;2023-05-07T07:49:34;7.80;;;4.50;;
70078;SDS011;57451;52.496;13.456;2023-05-07T07:52:04;7.40;;;4.57;;
70078;SDS011;57451;52.496;13.456;2023-05-07T07:54:36;6.15;;;4.00;;
70078;SDS011;57451;52.496;13.456;2023-05-07T07:57:06;7.18;;;4.20;;
70078;SDS011;57451;52.496;13.456;2023-05-07T07:59:34;7.57;;;4.60;;
70078;SDS011;57451;52.496;13.456;2023-05-07T08:02:01;7.30;;;3.88;;
70078;SDS011;57451;52.496;13.456;2023-05-07T08:04:29;7.23;;;4.57;;
70078;SDS011;57451;52.496;13.456;2023-05-07T08:07:01;7.45;;;4.53;;
70078;SDS011;57451;52.496;13.456;2023-05-07T08:09:30;5.97;;;3.33;;
70078;SDS011;57451;52.496;13.456;2023-05-07T08:12:01;6.78;;;3.88;;
70078;SDS011;57451;52.496;13.456;2023-05-07T08:14:31;6.47;;;3.83;;
70078;SDS011;57451;52.496;13.456;2023-05-07T08:16:59;6.80;;;4.20;;
70078;SDS011;57451;52.496;13.456;2023-05-07T08:19:27;7.93;;;4.43;;
70078;SDS011;57451;52.496;13.456;2023-05-07T08:21:55;8.90;;;5.00;;
70078;SDS011;57451;52.496;13.456;2023-05-07T08:24:23;6.45;;;3.60;;
70078;SDS011;57451;52.496;13.456;2023-05-07T08:26:51;5.45;;;3.78;;
70078;SDS011;57451;52.496;13.456;2023-05-07T08:29:20;6.77;;;4.23;;
70078;SDS011;57451;52.496;13.456;2023-05-07T08:31:47;8.48;;;3.28;;
70078;SDS011;57451;52.496;13.456;2023-05-07T08:34:14;7.57;;;3.80;;
70078;SDS011;57451;52.496;13.456;2023-05-07T08:36:44;8.13;;;3.75;;
70078;SDS011;57451;52.496;13.456;2023-05-07T08:39:16;6.13;;;3.50;;
70078;SDS011;57451;52.496;13.456;2023-05-07T08:41:47;6.53;;;3.60;;
70078;SDS011;57451;52.496;13.456;2023-05-07T08:44:17;5.90;;;3.40;;
70078;SDS011;57451;52.496;13.456;2023-05-07T08:46:50;6.43;;;3.80;;
70078;SDS011;57451;52.496;13.456;2023-05-07T08:49:22;6.85;;;3.35;;
70078;SDS011;57451;52.496;13.456;2023-05-07T08:51:50;6.00;;;3.25;;
70078;SDS011;57451;52.496;13.456;2023-05-07T08:54:19;5.30;;;2.93;;
70078;SDS011;57451;52.496;13.456;2023-05-07T08:56:47;6.22;;;3.10;;
70078;SDS011;57451;52.496;13.456;2023-05-07T08:59:15;6.95;;;3.30;;
70078;SDS011;57451;52.496;13.456;2023-05-07T09:01:45;7.10;;;3.72;;
70078;SDS011;57451;52.496;13.456;2023-05-07T09:04:13;5.47;;;3.10;;
70078;SDS011;57451;52.496;13.456;2023-05-07T09:06:42;7.43;;;3.40;;
70078;SDS011;57451;52.496;13.456;2023-05-07T09:09:13;5.40;;;3.08;;
70078;SDS011;57451;52.496;13.456;2023-05-07T09:11:44;8.35;;;3.30;;
70078;SDS011;57451;52.496;13.456;2023-05-07T09:14:13;4.90;;;3.03;;
70078;SDS011;57451;52.496;13.456;2023-05-07T09:16:43;6.00;;;3.30;;
70078;SDS011;57451;52.496;13.456;2023-05-07T09:19:12;5.47;;;3.17;;
70078;SDS011;57451;52.496;13.456;2023-05-07T09:21:43;5.85;;;3.30;;
70078;SDS011;57451;52.496;13.456;2023-05-07T09:24:12;6.88;;;3.40;;
70078;SDS011;57451;52.496;13.456;2023-05-07T09:26:43;4.93;;;3.15;;
70078;SDS011;57451;52.496;13.456;2023-05-07T09:29:11;5.35;;;3.17;;
70078;SDS011;57451;52.496;13.456;2023-05-07T09:31:39;6.23;;;3.33;;
70078;SDS011;57451;52.496;13.456;2023-05-07T09:34:11;5.45;;;3.00;;
70078;SDS011;57451;52.496;13.456;2023-05-07T09:36:41;7.07;;;3.22;;
70078;SDS011;57451;52.496;13.456;2023-05-07T09:39:10;5.30;;;3.08;;
70078;SDS011;57451;52.496;13.456;2023-05-07T09:41:43;4.93;;;2.72;;
70078;SDS011;57451;52.496;13.456;2023-05-07T09:44:15;5.00;;;2.83;;
70078;SDS011;57451;52.496;13.456;2023-05-07T09:46:49;5.18;;;2.80;;
70078;SDS011;57451;52.496;13.456;2023-05-07T09:49:30;5.82;;;3.22;;
70078;SDS011;57451;52.496;13.456;2023-05-07T09:52:05;4.72;;;2.90;;
70078;SDS011;57451;52.496;13.456;2023-05-07T09:54:38;5.55;;;2.75;;
70078;SDS011;57451;52.496;13.456;2023-05-07T09:57:09;4.93;;;2.73;;
70078;SDS011;57451;52.496;13.456;2023-05-07T09:59:40;5.20;;;2.60;;
70078;SDS011;57451;52.496;13.456;2023-05-07T10:02:12;7.88;;;2.55;;
70078;SDS011;57451;52.496;13.456;2023-05-07T10:04:48;4.35;;;2.50;;
70078;SDS011;57451;52.496;13.456;2023-05-07T10:07:21;3.85;;;1.77;;
70078;SDS011;57451;52.496;13.456;2023-05-07T10:09:52;4.37;;;2.10;;
70078;SDS011;57451;52.496;13.456;2023-05-07T10:12:37;3.75;;;1.92;;
70078;SDS011;57451;52.496;13.456;2023-05-07T10:15:12;3.90;;;2.10;;
70078;SDS011;57451;52.496;13.456;2023-05-07T10:17:44;4.20;;;2.10;;
70078;SDS011;57451;52.496;13.456;2023-05-07T10:20:13;7.80;;;2.30;;
70078;SDS011;57451;52.496;13.456;2023-05-07T10:22:44;4.07;;;2.03;;
70078;SDS011;57451;52.496;13.456;2023-05-07T10:25:17;4.50;;;1.80;;
70078;SDS011;57451;52.496;13.456;2023-05-07T10:27:48;4.03;;;1.85;;
70078;SDS011;57451;52.496;13.456;2023-05-07T10:30:20;4.30;;;2.00;;
70078;SDS011;57451;52.496;13.456;2023-05-07T10:32:55;5.18;;;1.85;;
70078;SDS011;57451;52.496;13.456;2023-05-07T10:35:37;5.33;;;1.80;;
70078;SDS011;57451;52.496;13.456;2023-05-07T10:38:08;4.20;;;1.90;;
70078;SDS011;57451;52.496;13.456;2023-05-07T10:40:38;3.47;;;1.80;;
70078;SDS011;57451;52.496;13.456;2023-05-07T10:43:07;4.70;;;2.10;;
70078;SDS011;57451;52.496;13.456;2023-05-07T10:45:41;7.03;;;1.83;;
70078;SDS011;57451;52.496;13.456;2023-05-07T10:48:11;3.63;;;1.70;;
70078;SDS011;57451;52.496;13.456;2023-05-07T10:50:49;3.95;;;1.98;;
70078;SDS011;57451;52.496;13.456;2023-05-07T10:53:48;4.20;;;1.70;;
70078;SDS011;57451;52.496;13.456;2023-05-07T10:56:24;3.75;;;1.90;;
70078;SDS011;57451;52.496;13.456;2023-05-07T11:02:20;4.20;;;2.00;;
70078;SDS011;57451;52.496;13.456;2023-05-07T11:07:57;4.53;;;1.90;;
70078;SDS011;57451;52.496;13.456;2023-05-07T11:10:48;4.72;;;2.13;;
70078;SDS011;57451;52.496;13.456;2023-05-07T11:13:40;3.80;;;2.08;;
70078;SDS011;57451;52.496;13.456;2023-05-07T11:16:17;3.97;;;2.00;;
70078;SDS011;57451;52.496;13.456;2023-05-07T11:18:48;6.90;;;1.90;;
70078;SDS011;57451;52.496;13.456;2023-05-07T11:21:33;3.75;;;2.00;;
70078;SDS011;57451;52.496;13.456;2023-05-07T11:24:21;3.90;;;1.85;;
70078;SDS011;57451;52.496;13.456;2023-05-07T11:27:02;3.63;;;1.98;;
70078;SDS011;57451;52.496;13.456;2023-05-07T11:29:30;4.10;;;2.07;;
70078;SDS011;57451;52.496;13.456;2023-05-07T11:32:04;4.20;;;2.17;;
70078;SDS011;57451;52.496;13.456;2023-05-07T11:34:39;3.72;;;1.75;;
70078;SDS011;57451;52.496;13.456;2023-05-07T11:37:07;4.47;;;2.10;;
70078;SDS011;57451;52.496;13.456;2023-05-07T11:39:46;4.15;;;2.03;;
70078;SDS011;57451;52.496;13.456;2023-05-07T11:42:24;5.70;;;2.20;;
70078;SDS011;57451;52.496;13.456;2023-05-07T11:44:52;4.78;;;2.00;;
70078;SDS011;57451;52.496;13.456;2023-05-07T11:47:20;6.82;;;2.00;;
70078;SDS011;57451;52.496;13.456;2023-05-07T11:49:48;5.38;;;2.03;;
70078;SDS011;57451;52.496;13.456;2023-05-07T11:52:16;4.55;;;2.00;;
70078;SDS011;57451;52.496;13.456;2023-05-07T11:54:49;4.77;;;2.00;;
70078;SDS011;57451;52.496;13.456;2023-05-07T11:57:17;4.15;;;2.00;;
70078;SDS011;57451;52.496;13.456;2023-05-07T11:59:44;5.28;;;2.10;;
70078;SDS011;57451;52.496;13.456;2023-05-07T12:02:13;3.80;;;2.05;;
70078;SDS011;57451;52.496;13.456;2023-05-07T12:04:42;4.38;;;1.90;;
70078;SDS011;57451;52.496;13.456;2023-05-07T12:07:11;4.27;;;1.70;;
70078;SDS011;57451;52.496;13.456;2023-05-07T12:09:39;5.00;;;1.92;;
70078;SDS011;57451;52.496;13.456;2023-05-07T12:12:08;4.53;;;1.80;;
70078;SDS011;57451;52.496;13.456;2023-05-07T12:14:37;3.55;;;1.75;;
70078;SDS011;57451;52.496;13.456;2023-05-07T12:17:05;4.97;;;1.70;;
70078;SDS011;57451;52.496;13.456;2023-05-07T12:19:34;3.77;;;1.60;;
70078;SDS011;57451;52.496;13.456;2023-05-07T12:22:02;3.40;;;1.30;;
70078;SDS011;57451;52.496;13.456;2023-05-07T12:24:41;4.85;;;1.85;;
70078;SDS011;57451;52.496;13.456;2023-05-07T12:27:13;3.55;;;1.50;;
70078;SDS011;57451;52.496;13.456;2023-05-07T12:29:43;5.18;;;1.90;;
70078;SDS011;57451;52.496;13.456;2023-05-07T12:32:13;3.90;;;1.83;;
70078;SDS011;57451;52.496;13.456;2023-05-07T12:34:41;4.25;;;1.98;;
70078;SDS011;57451;52.496;13.456;2023-05-07T12:37:11;3.88;;;1.90;;
70078;SDS011;57451;52.496;13.456;2023-05-07T12:39:43;4.53;;;1.67;;
70078;SDS011;57451;52.496;13.456;2023-05-07T12:42:15;3.72;;;1.77;;
70078;SDS011;57451;52.496;13.456;2023-05-07T12:44:46;6.10;;;1.77;;
70078;SDS011;57451;52.496;13.456;2023-05-07T12:47:14;3.30;;;1.50;;
70078;SDS011;57451;52.496;13.456;2023-05-07T12:49:43;3.60;;;1.80;;
70078;SDS011;57451;52.496;13.456;2023-05-07T12:52:12;3.20;;;1.50;;
70078;SDS011;57451;52.496;13.456;2023-05-07T12:54:40;3.60;;;1.58;;
70078;SDS011;57451;52.496;13.456;2023-05-07T12:57:07;4.37;;;1.60;;
70078;SDS011;57451;52.496;13.456;2023-05-07T12:59:38;3.60;;;1.52;;
70078;SDS011;57451;52.496;13.456;2023-05-07T13:02:07;4.22;;;1.70;;
70078;SDS011;57451;52.496;13.456;2023-05-07T13:04:37;4.20;;;1.40;;
70078;SDS011;57451;52.496;13.456;2023-05-07T13:07:04;4.55;;;1.73;;
70078;SDS011;57451;52.496;13.456;2023-05-07T13:09:31;3.87;;;1.80;;
70078;SDS011;57451;52.496;13.456;2023-05-07T13:11:59;4.65;;;1.95;;
70078;SDS011;57451;52.496;13.456;2023-05-07T13:14:28;3.80;;;1.55;;
70078;SDS011;57451;52.496;13.456;2023-05-07T13:16:56;3.95;;;2.03;;
70078;SDS011;57451;52.496;13.456;2023-05-07T13:19:24;4.72;;;2.05;;
70078;SDS011;57451;52.496;13.456;2023-05-07T13:21:51;4.30;;;1.90;;
70078;SDS011;57451;52.496;13.456;2023-05-07T13:24:18;3.60;;;1.70;;
70078;SDS011;57451;52.496;13.456;2023-05-07T13:26:46;4.15;;;1.70;;
70078;SDS011;57451;52.496;13.456;2023-05-07T13:29:13;3.30;;;1.52;;
70078;SDS011;57451;52.496;13.456;2023-05-07T13:31:41;3.78;;;1.83;;
70078;SDS011;57451;52.496;13.456;2023-05-07T13:34:12;5.13;;;2.10;;
70078;SDS011;57451;52.496;13.456;2023-05-07T13:36:39;3.80;;;1.83;;
70078;SDS011;57451;52.496;13.456;2023-05-07T13:39:08;4.47;;;2.00;;
70078;SDS011;57451;52.496;13.456;2023-05-07T13:41:35;3.53;;;1.75;;
70078;SDS011;57451;52.496;13.456;2023-05-07T13:44:03;4.85;;;1.88;;
70078;SDS011;57451;52.496;13.456;2023-05-07T13:46:30;3.30;;;1.67;;
70078;SDS011;57451;52.496;13.456;2023-05-07T13:48:58;5.00;;;1.70;;
70078;SDS011;57451;52.496;13.456;2023-05-07T13:51:27;4.05;;;1.70;;
70078;SDS011;57451;52.496;13.456;2023-05-07T13:53:54;4.05;;;1.98;;
70078;SDS011;57451;52.496;13.456;2023-05-07T13:56:21;4.13;;;1.75;;
70078;SDS011;57451;52.496;13.456;2023-05-07T13:58:49;3.53;;;1.70;;
70078;SDS011;57451;52.496;13.456;2023-05-07T14:01:26;4.28;;;1.80;;
70078;SDS011;57451;52.496;13.456;2023-05-07T14:03:55;3.72;;;1.90;;
70078;SDS011;57451;52.496;13.456;2023-05-07T14:06:23;3.88;;;1.83;;
70078;SDS011;57451;52.496;13.456;2023-05-07T14:08:51;3.63;;;1.90;;
70078;SDS011;57451;52.496;13.456;2023-05-07T14:11:19;3.60;;;1.83;;
70078;SDS011;57451;52.496;13.456;2023-05-07T14:13:47;3.63;;;1.73;;
70078;SDS011;57451;52.496;13.456;2023-05-07T14:16:14;3.67;;;1.80;;
70078;SDS011;57451;52.496;13.456;2023-05-07T14:18:42;4.00;;;1.80;;
70078;SDS011;57451;52.496;13.456;2023-05-07T14:21:09;4.05;;;1.70;;
70078;SDS011;57451;52.496;13.456;2023-05-07T14:23:36;4.13;;;2.30;;
70078;SDS011;57451;52.496;13.456;2023-05-07T14:26:05;3.80;;;1.92;;
70078;SDS011;57451;52.496;13.456;2023-05-07T14:28:32;4.22;;;2.00;;
70078;SDS011;57451;52.496;13.456;2023-05-07T14:31:00;4.55;;;1.70;;
70078;SDS011;57451;52.496;13.456;2023-05-07T14:33:27;4.15;;;1.92;;
70078;SDS011;57451;52.496;13.456;2023-05-07T14:35:55;4.03;;;1.70;;
70078;SDS011;57451;52.496;13.456;2023-05-07T14:38:22;3.35;;;1.60;;
70078;SDS011;57451;52.496;13.456;2023-05-07T14:44:23;4.50;;;1.83;;
70078;SDS011;57451;52.496;13.456;2023-05-07T14:46:51;3.70;;;1.65;;
70078;SDS011;57451;52.496;13.456;2023-05-07T14:49:19;3.20;;;1.70;;
70078;SDS011;57451;52.496;13.456;2023-05-07T14:51:47;4.00;;;1.45;;